Time;durP1;ratioP1;P1;durP2;ratioP2;P2;SDS_P1;SDS_P2;PMS_P1;PMS_P2;Temp;Humidity;BMP_temperature;BMP_pressure;BME280_temperature;BME280_humidity;BME280_pressure;Samples;Min_cycle;Max_cycle;Signal;HPM_P1;HPM_P2
2021/11/27 00:00:05;;;;;;;32.47;14.52;;;;;;;-0.01;82.49;96228.44;5070061;28;20084;-83
2021/11/27 00:02:30;;;;;;;34.78;16.58;;;;;;;-0.02;82.31;96234.91;5066489;28;20185;-83
2021/11/27 00:04:56;;;;;;;34.85;16.50;;;;;;;-0.02;82.48;96229.53;5066090;28;20069;-83
2021/11/27 00:07:21;;;;;;;34.67;17.73;;;;;;;0.01;82.57;96235.44;5052368;28;20039;-84
2021/11/27 00:09:47;;;;;;;36.50;16.35;;;;;;;-0.02;81.97;96232.22;5069091;28;20107;-82
2021/11/27 00:12:12;;;;;;;32.88;16.08;;;;;;;-0.01;82.23;96241.13;5069649;28;20039;-82
2021/11/27 00:14:38;;;;;;;32.00;15.02;;;;;;;-0.01;82.06;96236.53;5065993;28;20029;-81
2021/11/27 00:17:04;;;;;;;28.27;15.00;;;;;;;0.00;82.40;96242.72;5067236;28;20103;-81
2021/11/27 00:19:29;;;;;;;26.13;11.45;;;;;;;-0.05;82.36;96235.47;5067187;28;20031;-81
2021/11/27 00:21:55;;;;;;;28.45;13.27;;;;;;;0.00;81.97;96237.34;5062978;28;20214;-78
2021/11/27 00:24:20;;;;;;;27.63;13.40;;;;;;;0.01;82.49;96230.03;5057137;28;20761;-78
2021/11/27 00:26:46;;;;;;;30.23;14.40;;;;;;;0.00;82.35;96240.03;5059350;28;20032;-79
2021/11/27 00:29:11;;;;;;;27.45;14.35;;;;;;;0.02;82.55;96240.53;5066146;28;20028;-80
2021/11/27 00:31:39;;;;;;;54.10;23.63;;;;;;;0.03;82.42;96235.97;5093316;28;20032;-82
2021/11/27 00:34:04;;;;;;;30.27;14.40;;;;;;;-0.01;81.95;96236.53;5092719;28;20380;-78
2021/11/27 00:36:30;;;;;;;21.45;10.70;;;;;;;-0.03;81.98;96235.22;5074162;28;20024;-79
2021/11/27 00:38:56;;;;;;;22.38;11.70;;;;;;;-0.01;82.25;96239.22;5092227;28;20032;-79
2021/11/27 00:41:22;;;;;;;19.52;10.43;;;;;;;0.00;82.71;96250.81;5092242;28;20503;-79
2021/11/27 00:43:47;;;;;;;17.60;9.27;;;;;;;-0.01;82.20;96244.59;5091539;28;20115;-78
2021/11/27 00:46:14;;;;;;;14.48;8.30;;;;;;;-0.04;81.75;96242.47;5090717;28;20023;-79
2021/11/27 00:48:40;;;;;;;12.40;6.25;;;;;;;-0.04;82.44;96247.06;5090604;28;20054;-79
2021/11/27 00:51:15;;;;;;;15.73;8.93;;;;;;;0.01;81.77;96238.13;5090571;28;20077;-79
2021/11/27 00:53:42;;;;;;;9.35;5.30;;;;;;;0.05;82.49;96242.66;5090845;28;20050;-79
2021/11/27 00:56:08;;;;;;;11.70;6.82;;;;;;;0.05;82.29;96239.19;5072284;28;20016;-79
2021/11/27 00:58:33;;;;;;;11.18;6.65;;;;;;;0.05;81.96;96239.19;5090475;28;20028;-79
2021/11/27 01:01:08;;;;;;;10.90;6.68;;;;;;;0.02;81.75;96243.22;5090601;28;20488;-81
2021/11/27 01:03:35;;;;;;;11.25;6.40;;;;;;;0.03;82.06;96244.03;5090756;28;20517;-79
2021/11/27 01:06:04;;;;;;;10.63;6.43;;;;;;;0.01;82.24;96246.22;5090802;28;20472;-78
2021/11/27 01:08:30;;;;;;;12.40;6.70;;;;;;;0.05;82.63;96249.97;5090523;28;20016;-78
2021/11/27 01:11:04;;;;;;;13.25;7.68;;;;;;;0.10;82.07;96247.22;5089706;28;20093;-79
2021/11/27 01:13:31;;;;;;;11.50;6.85;;;;;;;0.10;82.12;96245.31;5092237;28;20024;-78
2021/11/27 01:15:58;;;;;;;10.13;6.28;;;;;;;0.12;81.79;96240.44;5090893;28;20071;-76
2021/11/27 01:18:24;;;;;;;11.75;6.93;;;;;;;0.12;82.18;96242.34;5072086;28;20365;-79
2021/11/27 01:20:57;;;;;;;13.73;7.53;;;;;;;0.11;82.03;96240.75;5066903;28;20027;-79
2021/11/27 01:23:24;;;;;;;11.75;7.60;;;;;;;0.16;82.16;96242.59;5083914;28;20020;-78
2021/11/27 01:25:49;;;;;;;14.55;8.00;;;;;;;0.19;81.66;96253.63;5083521;28;20034;-78
2021/11/27 01:28:18;;;;;;;14.90;7.35;;;;;;;0.22;81.79;96257.63;5084054;28;20012;-78
2021/11/27 01:30:45;;;;;;;13.73;7.50;;;;;;;0.16;81.68;96256.06;5082316;28;20062;-78
2021/11/27 01:33:11;;;;;;;15.13;7.82;;;;;;;0.10;81.32;96263.41;5083462;28;20024;-78
2021/11/27 01:35:36;;;;;;;16.00;8.55;;;;;;;0.07;81.80;96253.97;5083888;28;20453;-79
2021/11/27 01:38:03;;;;;;;12.93;6.88;;;;;;;0.12;81.93;96262.00;5084627;28;20031;-78
2021/11/27 01:40:28;;;;;;;16.45;8.57;;;;;;;0.10;82.21;96252.63;5083302;28;20152;-79
2021/11/27 01:42:54;;;;;;;15.43;8.35;;;;;;;0.12;81.70;96262.00;5084602;28;20110;-79
2021/11/27 01:45:22;;;;;;;18.60;9.00;;;;;;;0.07;81.78;96253.97;5065160;28;20031;-78
2021/11/27 01:47:52;;;;;;;19.38;10.15;;;;;;;0.05;81.92;96264.22;5083144;28;20043;-79
2021/11/27 01:50:18;;;;;;;17.75;8.45;;;;;;;0.05;82.12;96260.75;5082269;28;20120;-78
2021/11/27 01:52:44;;;;;;;16.38;8.38;;;;;;;0.04;82.33;96267.22;5084518;28;20028;-78
2021/11/27 01:55:10;;;;;;;26.58;12.70;;;;;;;0.04;81.92;96269.91;5084384;28;20036;-78
2021/11/27 01:57:36;;;;;;;22.38;9.52;;;;;;;0.06;82.28;96265.03;5064730;28;20563;-78
2021/11/27 02:00:06;;;;;;;34.47;14.70;;;;;;;0.05;82.29;96277.69;5083180;28;20077;-79
2021/11/27 02:02:31;;;;;;;29.08;12.35;;;;;;;0.09;81.69;96278.75;5081431;28;20480;-79
2021/11/27 02:04:57;;;;;;;25.60;11.65;;;;;;;0.09;82.20;96277.97;5081201;28;20042;-80
2021/11/27 02:07:22;;;;;;;32.65;14.25;;;;;;;0.09;82.02;96277.97;5083745;28;20028;-79
2021/11/27 02:09:48;;;;;;;35.42;14.38;;;;;;;0.09;81.98;96291.44;5082164;28;20085;-79
2021/11/27 02:12:14;;;;;;;28.48;12.40;;;;;;;0.02;82.38;96286.34;5083427;28;20035;-79
2021/11/27 02:14:40;;;;;;;26.67;11.57;;;;;;;-0.01;82.47;96284.25;5082241;28;20032;-80
2021/11/27 02:17:07;;;;;;;31.67;13.60;;;;;;;-0.04;82.79;96282.09;5063963;28;20020;-80
2021/11/27 02:19:33;;;;;;;29.60;13.20;;;;;;;-0.06;82.67;96289.66;5082666;28;20044;-79
2021/11/27 02:21:59;;;;;;;24.75;11.40;;;;;;;-0.08;82.71;96286.44;5080791;28;20027;-79
2021/11/27 02:24:25;;;;;;;29.23;13.57;;;;;;;-0.09;83.11;96288.31;5081231;28;20032;-78
2021/11/27 02:26:51;;;;;;;24.65;11.23;;;;;;;-0.05;82.80;96288.59;5081729;28;20020;-78
2021/11/27 02:29:26;;;;;;;25.90;11.77;;;;;;;-0.01;83.01;96276.94;5082442;28;20030;-78
2021/11/27 02:31:53;;;;;;;25.35;12.00;;;;;;;0.02;83.43;96277.47;5080861;28;20430;-78
2021/11/27 02:34:19;;;;;;;28.48;13.05;;;;;;;0.06;82.68;96282.00;5081307;28;20059;-78
2021/11/27 02:36:51;;;;;;;27.08;13.73;;;;;;;0.11;82.96;96281.97;5081709;28;20024;-78
2021/11/27 02:39:19;;;;;;;24.23;11.15;;;;;;;0.13;82.48;96285.19;5082015;28;20027;-78
2021/11/27 02:41:44;;;;;;;29.27;13.50;;;;;;;0.16;82.53;96285.72;5080795;28;20123;-79
2021/11/27 02:44:10;;;;;;;25.17;12.00;;;;;;;0.19;82.51;96285.16;5082086;28;20816;-79
2021/11/27 02:46:39;;;;;;;24.50;11.52;;;;;;;0.19;82.90;96285.97;5081759;28;20040;-79
2021/11/27 02:49:07;;;;;;;24.63;11.32;;;;;;;0.21;82.77;96285.66;5081093;28;20024;-79
2021/11/27 02:51:32;;;;;;;22.52;10.98;;;;;;;0.22;82.72;96284.59;5079510;28;20777;-79
2021/11/27 02:53:58;;;;;;;27.80;12.75;;;;;;;0.22;82.37;96290.75;5080314;28;20051;-79
2021/11/27 02:56:23;;;;;;;25.58;11.80;;;;;;;0.26;82.50;96291.81;5081762;28;20020;-78
2021/11/27 02:58:49;;;;;;;24.38;11.75;;;;;;;0.32;82.29;96292.59;5081147;28;20031;-78
2021/11/27 03:01:16;;;;;;;25.52;11.75;;;;;;;0.35;82.39;96288.50;5080334;28;20020;-78
2021/11/27 03:03:41;;;;;;;28.10;13.10;;;;;;;0.35;82.28;96280.44;5063589;28;20035;-78
2021/11/27 03:06:07;;;;;;;24.27;11.35;;;;;;;0.36;82.27;96288.25;5081845;28;20028;-78
2021/11/27 03:08:34;;;;;;;27.23;12.40;;;;;;;0.35;82.37;96292.03;5062658;28;20210;-79
2021/11/27 03:11:00;;;;;;;21.65;10.35;;;;;;;0.36;82.39;96296.34;5080011;28;20028;-78
2021/11/27 03:13:32;;;;;;;32.20;17.15;;;;;;;0.34;81.86;96295.00;5081450;28;20229;-79
2021/11/27 03:15:58;;;;;;;22.73;10.55;;;;;;;0.37;82.25;96289.03;5081077;28;20106;-78
2021/11/27 03:18:23;;;;;;;26.95;12.00;;;;;;;0.36;82.68;96282.84;5081149;28;20032;-78
2021/11/27 03:20:51;;;;;;;28.60;14.07;;;;;;;0.36;82.22;96282.03;5082601;28;20448;-79
2021/11/27 03:23:17;;;;;;;30.60;14.00;;;;;;;0.38;82.25;96287.94;5086087;28;20136;-79
2021/11/27 03:25:42;;;;;;;29.58;14.38;;;;;;;0.39;82.37;96284.16;5086544;28;20040;-79
2021/11/27 03:28:08;;;;;;;28.00;12.48;;;;;;;0.41;82.41;96290.09;5085748;28;20127;-79
2021/11/27 03:30:33;;;;;;;27.88;14.15;;;;;;;0.44;82.33;96284.13;5084347;28;20036;-77
2021/11/27 03:32:59;;;;;;;23.90;12.38;;;;;;;0.51;82.47;96283.78;5085541;28;20549;-79
2021/11/27 03:35:24;;;;;;;25.80;13.43;;;;;;;0.54;82.39;96289.44;5085575;28;20039;-78
2021/11/27 03:37:51;;;;;;;27.85;14.52;;;;;;;0.55;82.06;96298.31;5085454;28;20024;-78
2021/11/27 03:40:16;;;;;;;29.98;16.05;;;;;;;0.59;82.34;96302.88;5084677;28;20067;-79
2021/11/27 03:42:42;;;;;;;27.60;16.05;;;;;;;0.61;82.48;96305.25;5067442;28;20877;-78
2021/11/27 03:45:12;;;;;;;28.25;14.13;;;;;;;0.60;82.52;96306.34;5085814;28;20504;-79
2021/11/27 03:47:57;;;;;;;24.80;13.40;;;;;;;0.58;82.14;96312.03;5085797;28;20039;-79
2021/11/27 03:50:22;;;;;;;27.88;15.40;;;;;;;0.64;81.92;96309.28;5065669;28;20064;-78
2021/11/27 03:52:48;;;;;;;26.20;14.70;;;;;;;0.68;82.10;96310.31;5085782;28;20154;-79
2021/11/27 03:55:13;;;;;;;34.10;18.08;;;;;;;0.69;81.98;96314.63;5084957;28;20031;-78
2021/11/27 03:57:39;;;;;;;35.13;17.52;;;;;;;0.70;81.88;96311.66;5085956;28;20036;-79
2021/11/27 04:00:08;;;;;;;30.98;17.23;;;;;;;0.71;81.61;96309.75;5084277;28;20472;-78
2021/11/27 04:02:34;;;;;;;33.95;17.13;;;;;;;0.68;82.12;96313.00;5084964;28;20020;-78
2021/11/27 04:05:00;;;;;;;40.70;20.77;;;;;;;0.61;82.18;96312.56;5067144;28;20032;-78
2021/11/27 04:07:25;;;;;;;38.67;18.55;;;;;;;0.58;81.62;96314.75;5085265;28;20396;-78
2021/11/27 04:09:51;;;;;;;40.33;19.23;;;;;;;0.59;81.67;96318.22;5085087;28;20024;-79
2021/11/27 04:12:16;;;;;;;37.47;20.15;;;;;;;0.59;82.16;96326.31;5084727;28;20575;-78
2021/11/27 04:14:42;;;;;;;42.83;20.05;;;;;;;0.59;81.92;96334.41;5086016;28;20039;-78
2021/11/27 04:17:07;;;;;;;37.70;19.17;;;;;;;0.59;82.16;96339.81;5084865;28;20028;-79
2021/11/27 04:19:32;;;;;;;28.58;14.88;;;;;;;0.59;81.91;96351.41;5084751;28;20043;-78
2021/11/27 04:21:58;;;;;;;39.97;19.38;;;;;;;0.59;81.58;96339.81;5065954;28;20027;-80
2021/11/27 04:24:23;;;;;;;40.63;21.58;;;;;;;0.56;82.24;96346.59;5084817;28;20525;-79
2021/11/27 04:26:49;;;;;;;34.63;16.88;;;;;;;0.54;81.92;96345.25;5085217;28;20020;-79
2021/11/27 04:29:14;;;;;;;34.38;17.60;;;;;;;0.55;81.99;96353.06;5084083;28;20031;-79
2021/11/27 04:31:40;;;;;;;34.55;16.52;;;;;;;0.58;81.43;96347.13;5083803;28;20055;-79
2021/11/27 04:34:05;;;;;;;41.58;20.27;;;;;;;0.62;81.62;96343.81;5083665;28;20062;-78
2021/11/27 04:36:31;;;;;;;41.40;19.33;;;;;;;0.61;81.65;96343.03;5083747;28;20038;-79
2021/11/27 04:38:56;;;;;;;37.63;16.95;;;;;;;0.58;81.88;96332.81;5083953;28;20064;-78
2021/11/27 04:41:22;;;;;;;38.67;21.92;;;;;;;0.58;81.59;96332.81;5083775;28;20051;-79
2021/11/27 04:43:47;;;;;;;36.13;18.58;;;;;;;0.60;82.18;96341.41;5084654;28;20024;-78
2021/11/27 04:46:13;;;;;;;34.25;18.13;;;;;;;0.63;81.86;96331.94;5084772;28;20036;-78
2021/11/27 04:48:38;;;;;;;40.17;19.52;;;;;;;0.58;81.63;96338.19;5084597;28;20043;-79
2021/11/27 04:51:04;;;;;;;34.78;17.83;;;;;;;0.57;81.49;96339.28;5081166;28;20039;-78
2021/11/27 04:53:29;;;;;;;34.33;17.60;;;;;;;0.55;81.24;96339.59;5082795;28;20035;-78
2021/11/27 04:55:56;;;;;;;36.63;19.50;;;;;;;0.58;82.08;96343.59;5083956;28;20036;-78
2021/11/27 04:58:22;;;;;;;38.42;18.77;;;;;;;0.58;81.93;96344.41;5083996;28;20020;-79
2021/11/27 05:00:50;;;;;;;36.35;17.02;;;;;;;0.62;81.90;96343.81;5082213;28;20020;-78
2021/11/27 05:03:16;;;;;;;30.73;15.45;;;;;;;0.60;81.63;96338.72;5083739;28;20086;-79
2021/11/27 05:05:41;;;;;;;32.38;16.25;;;;;;;0.56;81.33;96343.06;5083628;28;20491;-79
2021/11/27 05:08:07;;;;;;;32.45;16.40;;;;;;;0.57;81.25;96342.00;5082745;28;20028;-78
2021/11/27 05:10:32;;;;;;;35.35;18.88;;;;;;;0.55;81.69;96336.88;5082572;28;20063;-79
2021/11/27 05:12:58;;;;;;;34.50;18.00;;;;;;;0.57;81.66;96344.69;5083108;28;20100;-79
2021/11/27 05:15:24;;;;;;;30.75;16.58;;;;;;;0.58;81.54;96347.13;5065504;28;20632;-79
2021/11/27 05:17:50;;;;;;;34.92;16.55;;;;;;;0.59;81.19;96345.22;5084375;28;20111;-79
2021/11/27 05:20:15;;;;;;;30.15;15.50;;;;;;;0.61;81.49;96347.63;5082526;28;20312;-78
2021/11/27 05:22:41;;;;;;;37.17;18.95;;;;;;;0.59;81.50;96350.59;5084173;28;20031;-78
2021/11/27 05:25:07;;;;;;;29.60;16.02;;;;;;;0.66;81.82;96347.56;5084138;28;20031;-79
2021/11/27 05:27:35;;;;;;;32.03;16.77;;;;;;;0.65;81.37;96352.16;5083505;28;20032;-79
2021/11/27 05:30:00;;;;;;;31.67;16.50;;;;;;;0.67;81.57;96343.78;5083082;28;20426;-79
2021/11/27 05:33:13;;;;;;;32.83;17.65;;;;;;;0.65;81.34;96344.06;5083571;28;20040;-78
2021/11/27 05:35:12;;;;;;;34.55;17.90;;;;;;;0.64;81.45;96347.88;5072863;28;20047;-78
2021/11/27 05:37:38;;;;;;;32.20;18.25;;;;;;;0.62;80.97;96343.81;5083301;28;20936;-78
2021/11/27 05:40:05;;;;;;;33.72;18.05;;;;;;;0.59;81.13;96354.13;5082548;28;20032;-78
2021/11/27 05:42:31;;;;;;;31.98;15.63;;;;;;;0.59;81.49;96350.59;5082628;28;20062;-78
2021/11/27 05:44:57;;;;;;;37.17;20.75;;;;;;;0.56;81.08;96349.28;5083295;28;20111;-78
2021/11/27 05:47:23;;;;;;;32.63;17.50;;;;;;;0.54;81.71;96348.75;5083223;28;20028;-78
2021/11/27 05:49:49;;;;;;;37.13;18.85;;;;;;;0.51;81.63;96348.50;5064673;28;20152;-78
2021/11/27 05:52:15;;;;;;;33.47;18.42;;;;;;;0.47;81.28;96347.47;5082875;28;20040;-78
2021/11/27 05:54:41;;;;;;;34.50;18.70;;;;;;;0.41;81.75;96352.91;5083815;28;20127;-78
2021/11/27 05:57:06;;;;;;;37.30;19.52;;;;;;;0.40;81.77;96359.41;5082707;28;20042;-76
2021/11/27 05:59:32;;;;;;;35.00;18.65;;;;;;;0.41;81.51;96362.91;5082358;28;20421;-75
2021/11/27 06:01:58;;;;;;;33.33;16.70;;;;;;;0.40;81.20;96354.00;5082163;28;20452;-76
2021/11/27 06:04:24;;;;;;;41.13;23.73;;;;;;;0.39;81.76;96351.59;5065287;28;20512;-78
2021/11/27 06:06:50;;;;;;;61.03;37.60;;;;;;;0.38;81.86;96349.97;5083191;28;20032;-78
2021/11/27 06:09:15;;;;;;;42.83;25.00;;;;;;;0.34;81.27;96360.53;5082930;28;20039;-78
2021/11/27 06:11:41;;;;;;;47.45;26.10;;;;;;;0.34;81.14;96370.50;5081738;28;20840;-77
2021/11/27 06:14:06;;;;;;;43.90;25.95;;;;;;;0.35;81.67;96372.94;5083046;28;20039;-77
2021/11/27 06:16:32;;;;;;;37.67;19.60;;;;;;;0.35;81.50;96377.50;5083316;28;20039;-77
2021/11/27 06:18:57;;;;;;;39.42;22.33;;;;;;;0.33;81.43;96383.19;5083287;28;20491;-77
2021/11/27 06:21:23;;;;;;;42.63;25.15;;;;;;;0.34;81.83;96381.28;5082176;28;20063;-76
2021/11/27 06:23:50;;;;;;;39.60;22.00;;;;;;;0.35;81.56;96388.28;5082673;28;20028;-77
2021/11/27 06:26:16;;;;;;;78.88;47.97;;;;;;;0.34;81.46;96392.06;5083877;28;20384;-77
2021/11/27 06:28:42;;;;;;;42.17;22.05;;;;;;;0.32;81.53;96381.56;5065118;28;20036;-77
2021/11/27 06:31:07;;;;;;;63.88;35.97;;;;;;;0.32;81.77;96394.25;5081706;28;20048;-77
2021/11/27 06:33:32;;;;;;;76.47;37.20;;;;;;;0.32;81.58;96395.06;5083210;28;20036;-77
2021/11/27 06:35:58;;;;;;;60.80;31.75;;;;;;;0.33;81.76;96395.84;5083506;28;20111;-77
2021/11/27 06:38:23;;;;;;;74.95;40.40;;;;;;;0.37;81.78;96397.72;5083515;28;20028;-77
2021/11/27 06:40:49;;;;;;;62.97;36.75;;;;;;;0.39;81.62;96405.50;5082187;28;20046;-77
2021/11/27 06:43:15;;;;;;;76.35;39.70;;;;;;;0.41;82.00;96400.66;5083351;28;20036;-77
2021/11/27 06:45:40;;;;;;;89.95;46.03;;;;;;;0.43;82.12;96411.97;5082969;28;20047;-77
2021/11/27 06:48:06;;;;;;;78.28;42.78;;;;;;;0.42;82.21;96413.03;5083346;28;20494;-78
2021/11/27 06:50:31;;;;;;;67.72;35.85;;;;;;;0.43;81.85;96420.84;5082120;28;21041;-77
2021/11/27 06:52:57;;;;;;;48.83;25.13;;;;;;;0.43;81.66;96420.84;5064047;28;20484;-78
2021/11/27 06:55:22;;;;;;;71.78;36.80;;;;;;;0.42;81.79;96415.75;5064821;28;20036;-78
2021/11/27 06:57:48;;;;;;;63.67;29.02;;;;;;;0.41;81.72;96419.53;5087102;28;20024;-77
2021/11/27 07:00:13;;;;;;;54.42;26.15;;;;;;;0.42;81.91;96426.53;5085267;28;20028;-77
2021/11/27 07:02:39;;;;;;;76.82;30.75;;;;;;;0.44;81.43;96424.38;5087111;28;20166;-77
2021/11/27 07:05:05;;;;;;;88.15;35.63;;;;;;;0.46;81.60;96430.28;5086328;28;20040;-77
2021/11/27 07:07:30;;;;;;;63.05;29.15;;;;;;;0.49;81.91;96429.72;5086619;28;20027;-77
2021/11/27 07:09:56;;;;;;;74.82;31.95;;;;;;;0.52;81.98;96436.44;5086176;28;20166;-77
2021/11/27 07:12:21;;;;;;;97.22;38.63;;;;;;;0.54;81.96;96435.09;5085882;28;20062;-77
2021/11/27 07:14:47;;;;;;;115.78;45.42;;;;;;;0.53;81.33;96443.44;5087138;28;20043;-77
2021/11/27 07:17:12;;;;;;;97.78;38.55;;;;;;;0.50;81.29;96444.81;5086637;28;20478;-78
2021/11/27 07:19:37;;;;;;;124.20;46.97;;;;;;;0.45;80.97;96436.75;5086510;28;20047;-78
2021/11/27 07:22:04;;;;;;;94.43;37.58;;;;;;;0.40;81.08;96444.88;5085411;28;20036;-78
2021/11/27 07:24:30;;;;;;;107.70;41.72;;;;;;;0.33;80.71;96450.59;5086881;28;20032;-78
2021/11/27 07:26:56;;;;;;;86.30;33.75;;;;;;;0.26;81.11;96456.28;5086449;28;20054;-78
2021/11/27 07:29:21;;;;;;;99.25;40.67;;;;;;;0.22;81.08;96449.84;5086341;28;20044;-78
2021/11/27 07:31:48;;;;;;;94.10;41.97;;;;;;;0.18;81.09;96456.88;5085306;28;20137;-78
2021/11/27 07:34:13;;;;;;;67.95;32.45;;;;;;;0.15;80.84;96457.44;5086632;28;20039;-79
2021/11/27 07:36:39;;;;;;;57.28;26.50;;;;;;;0.16;81.24;96464.44;5086431;28;20036;-80
2021/11/27 07:39:08;;;;;;;47.97;24.08;;;;;;;0.15;80.51;96462.84;5086025;28;20443;-79
2021/11/27 07:41:33;;;;;;;52.40;24.55;;;;;;;0.12;80.68;96463.38;5085212;28;21115;-78
2021/11/27 07:43:59;;;;;;;49.67;23.10;;;;;;;0.13;80.45;96465.78;5085648;28;20032;-79
2021/11/27 07:46:24;;;;;;;38.40;18.50;;;;;;;0.14;81.10;96470.09;5086480;28;20036;-78
2021/11/27 07:48:50;;;;;;;51.33;26.52;;;;;;;0.17;80.53;96467.94;5067929;28;20028;-79
2021/11/27 07:51:16;;;;;;;66.93;30.95;;;;;;;0.23;81.20;96464.13;5066933;28;20028;-79
2021/11/27 07:53:43;;;;;;;57.70;27.10;;;;;;;0.27;80.50;96471.38;5086400;28;20038;-80
2021/11/27 07:56:10;;;;;;;61.88;27.38;;;;;;;0.26;80.86;96469.75;5086330;28;20032;-79
2021/11/27 07:58:35;;;;;;;73.05;31.52;;;;;;;0.31;80.68;96477.03;5086307;28;20032;-79
2021/11/27 08:01:01;;;;;;;79.28;34.53;;;;;;;0.34;80.65;96470.28;5085016;28;20034;-79
2021/11/27 08:03:26;;;;;;;102.68;40.63;;;;;;;0.37;80.54;96485.88;5085698;28;20124;-79
2021/11/27 08:05:51;;;;;;;144.48;50.10;;;;;;;0.34;80.66;96473.78;5085807;28;20055;-79
2021/11/27 08:08:17;;;;;;;88.68;39.72;;;;;;;0.37;80.68;96478.63;5085440;28;20035;-78
2021/11/27 08:10:43;;;;;;;82.47;36.60;;;;;;;0.44;80.39;96478.31;5085061;28;20385;-78
2021/11/27 08:13:08;;;;;;;93.80;49.47;;;;;;;0.49;80.48;96475.56;5084997;28;20036;-77
2021/11/27 08:15:34;;;;;;;70.15;35.85;;;;;;;0.55;80.32;96477.16;5086167;28;20036;-78
2021/11/27 08:18:00;;;;;;;87.20;40.05;;;;;;;0.59;80.58;96485.47;5067245;28;20032;-78
2021/11/27 08:20:26;;;;;;;66.85;30.75;;;;;;;0.65;80.28;96478.16;5085177;28;20036;-78
2021/11/27 08:22:51;;;;;;;70.03;34.80;;;;;;;0.67;80.49;96482.19;5085165;28;20050;-78
2021/11/27 08:25:16;;;;;;;65.80;29.40;;;;;;;0.76;80.53;96484.31;5085359;28;20040;-78
2021/11/27 08:27:42;;;;;;;67.82;28.05;;;;;;;0.86;80.34;96484.19;5068012;28;20070;-77
2021/11/27 08:30:09;;;;;;;54.78;23.83;;;;;;;0.95;80.79;96482.50;5084501;28;20408;-76
2021/11/27 08:32:36;;;;;;;65.63;29.88;;;;;;;0.96;80.37;96476.03;5066756;28;20056;-77
2021/11/27 08:35:02;;;;;;;64.93;28.77;;;;;;;0.96;80.61;96491.44;5085083;28;20040;-79
2021/11/27 08:37:29;;;;;;;64.95;32.70;;;;;;;0.97;80.38;96484.94;5085466;28;20055;-79
2021/11/27 08:39:55;;;;;;;60.45;33.42;;;;;;;0.95;79.79;96490.63;5085746;28;20035;-77
2021/11/27 08:42:21;;;;;;;68.25;31.95;;;;;;;0.94;79.95;96490.91;5084072;28;20051;-79
2021/11/27 08:44:50;;;;;;;69.43;32.53;;;;;;;0.99;80.15;96490.88;5066766;28;20480;-79
2021/11/27 08:47:17;;;;;;;60.60;28.20;;;;;;;1.11;80.45;96487.78;5085941;28;20047;-79
2021/11/27 08:49:43;;;;;;;69.15;31.33;;;;;;;1.15;79.97;96476.13;5085661;28;20198;-79
2021/11/27 08:52:08;;;;;;;55.65;27.55;;;;;;;1.18;79.48;96488.28;5084059;28;20945;-78
2021/11/27 08:54:34;;;;;;;71.13;32.35;;;;;;;1.20;79.78;96491.50;5084536;28;20032;-78
2021/11/27 08:56:59;;;;;;;63.13;29.58;;;;;;;1.19;79.83;96496.09;5085597;28;20495;-79
2021/11/27 08:59:25;;;;;;;58.08;28.50;;;;;;;1.24;79.34;96494.44;5084782;28;20028;-79
2021/11/27 09:01:52;;;;;;;46.65;23.55;;;;;;;1.27;79.57;96488.47;5065582;28;20465;-79
2021/11/27 09:04:18;;;;;;;42.38;21.35;;;;;;;1.36;79.79;96494.88;5084072;28;20085;-80
2021/11/27 09:06:43;;;;;;;46.58;23.23;;;;;;;1.37;79.39;96501.88;5066042;28;20031;-79
2021/11/27 09:09:09;;;;;;;45.85;23.73;;;;;;;1.33;79.51;96493.53;5084487;28;20032;-78
2021/11/27 09:11:35;;;;;;;47.88;24.15;;;;;;;1.37;79.20;96495.66;5084142;28;20566;-79
2021/11/27 09:14:02;;;;;;;57.80;27.10;;;;;;;1.43;79.49;96508.81;5066864;28;20030;-79
2021/11/27 09:16:28;;;;;;;53.85;27.17;;;;;;;1.49;79.71;96512.28;5082301;28;20809;-79
2021/11/27 09:18:53;;;;;;;57.33;29.30;;;;;;;1.46;79.34;96513.66;5082910;28;20027;-78
2021/11/27 09:21:18;;;;;;;43.72;20.23;;;;;;;1.43;79.03;96521.53;5083419;28;20032;-78
2021/11/27 09:23:44;;;;;;;45.65;22.98;;;;;;;1.34;79.45;96521.34;5085618;28;20047;-77
2021/11/27 09:26:09;;;;;;;41.80;19.15;;;;;;;1.20;78.70;96521.22;5085178;28;20112;-77
2021/11/27 09:28:35;;;;;;;45.83;20.73;;;;;;;1.07;78.17;96519.16;5084123;28;20116;-76
2021/11/27 09:31:01;;;;;;;41.85;20.75;;;;;;;0.95;78.81;96514.91;5083042;28;20044;-75
2021/11/27 09:33:29;;;;;;;42.53;20.17;;;;;;;0.85;78.89;96513.09;5067508;28;20629;-77
2021/11/27 09:36:07;;;;;;;47.78;22.15;;;;;;;0.80;78.72;96517.75;5084832;28;20040;-75
2021/11/27 09:38:35;;;;;;;48.33;22.80;;;;;;;0.76;78.50;96514.78;5083224;28;20032;-73
2021/11/27 09:41:09;;;;;;;48.47;22.95;;;;;;;0.80;78.65;96518.53;5080586;28;20391;-69
2021/11/27 09:43:36;;;;;;;46.60;22.13;;;;;;;0.84;78.75;96508.78;5082814;28;20031;-69
2021/11/27 09:46:02;;;;;;;48.67;21.27;;;;;;;0.88;79.22;96503.63;5064488;28;20631;-70
2021/11/27 09:48:29;;;;;;;42.88;21.55;;;;;;;0.91;79.22;96510.38;5065399;28;20024;-70
2021/11/27 09:50:55;;;;;;;44.58;19.90;;;;;;;0.94;78.92;96516.00;5064798;28;20028;-73
2021/11/27 09:53:22;;;;;;;64.50;26.50;;;;;;;0.96;78.80;96518.44;5083897;28;20024;-74
2021/11/27 09:55:48;;;;;;;50.42;22.80;;;;;;;0.91;79.15;96511.16;5083425;28;20710;-73
2021/11/27 09:58:14;;;;;;;50.78;21.80;;;;;;;0.88;79.04;96517.13;5083985;28;20032;-70
2021/11/27 10:00:40;;;;;;;72.10;28.40;;;;;;;0.88;78.77;96514.41;5083111;28;20039;-69
2021/11/27 10:03:08;;;;;;;65.78;26.42;;;;;;;0.88;78.70;96515.25;5082958;28;20044;-70
2021/11/27 10:05:35;;;;;;;61.83;31.40;;;;;;;0.95;78.99;96511.41;5083814;28;20032;-70
2021/11/27 10:08:01;;;;;;;63.35;27.05;;;;;;;1.02;78.94;96517.28;5083784;28;20024;-70
2021/11/27 10:10:26;;;;;;;102.70;32.65;;;;;;;1.09;79.38;96514.28;5083127;28;20428;-69
2021/11/27 10:12:52;;;;;;;75.35;27.17;;;;;;;1.09;79.07;96520.47;5082641;28;20086;-70
2021/11/27 10:15:18;;;;;;;157.75;44.38;;;;;;;1.06;79.19;96521.03;5083399;28;20024;-69
2021/11/27 10:17:43;;;;;;;133.25;38.22;;;;;;;1.04;79.02;96524.03;5083541;28;20040;-69
2021/11/27 10:20:10;;;;;;;89.30;29.85;;;;;;;1.06;78.83;96521.03;5081634;28;20120;-71
2021/11/27 10:22:38;;;;;;;74.97;29.13;;;;;;;1.09;79.09;96519.66;5082484;28;20071;-71
2021/11/27 10:25:36;;;;;;;116.68;36.83;;;;;;;1.17;79.13;96524.47;5080935;28;20445;-70
2021/11/27 10:28:09;;;;;;;85.93;34.28;;;;;;;1.33;78.47;96522.44;5082623;28;20085;-71
2021/11/27 10:31:00;;;;;;;98.65;34.38;;;;;;;1.52;78.24;96516.31;5083352;28;20028;-71
2021/11/27 10:33:26;;;;;;;51.60;24.17;;;;;;;1.64;78.24;96519.44;5087034;28;20453;-71
2021/11/27 10:35:55;;;;;;;62.47;23.73;;;;;;;1.75;77.99;96517.44;5087184;28;20162;-70
2021/11/27 10:38:33;;;;;;;67.03;26.77;;;;;;;1.83;78.49;96511.41;5085002;28;20028;-71
2021/11/27 10:41:00;;;;;;;69.22;28.70;;;;;;;1.95;78.24;96507.50;5084039;28;20478;-71
2021/11/27 10:43:25;;;;;;;49.17;22.35;;;;;;;2.10;78.06;96511.91;5086319;28;20476;-71
2021/11/27 10:45:51;;;;;;;74.43;30.88;;;;;;;2.20;77.84;96511.78;5068062;28;20031;-71
2021/11/27 10:48:17;;;;;;;67.05;27.88;;;;;;;2.26;78.27;96518.72;5087726;28;20036;-71
2021/11/27 10:50:50;;;;;;;65.32;28.77;;;;;;;2.32;77.67;96517.56;5086612;28;20063;-72
2021/11/27 10:53:18;;;;;;;60.05;26.58;;;;;;;2.42;77.41;96507.72;5087788;28;20039;-71
2021/11/27 10:55:44;;;;;;;58.60;28.00;;;;;;;2.44;76.71;96510.94;5069559;28;20112;-71
2021/11/27 10:58:11;;;;;;;51.88;25.02;;;;;;;2.55;77.78;96504.28;5069188;28;20040;-71
2021/11/27 11:00:40;;;;;;;51.92;26.33;;;;;;;2.71;77.59;96504.06;5086254;28;20078;-73
2021/11/27 11:03:27;;;;;;;54.95;27.15;;;;;;;2.82;76.97;96508.22;5087305;28;20131;-71
2021/11/27 11:05:55;;;;;;;64.05;29.75;;;;;;;3.02;77.68;96506.31;5069135;28;20472;-72
2021/11/27 11:08:32;;;;;;;105.25;46.05;;;;;;;3.17;77.34;96510.69;5087719;28;20031;-72
2021/11/27 11:10:58;;;;;;;45.17;21.67;;;;;;;3.33;76.34;96509.31;5086449;28;20732;-73
2021/11/27 11:13:30;;;;;;;43.22;21.23;;;;;;;3.39;76.61;96497.28;5087754;28;20062;-71
2021/11/27 11:15:56;;;;;;;58.33;27.45;;;;;;;3.46;76.53;96499.63;5087660;28;20039;-71
2021/11/27 11:18:27;;;;;;;46.40;21.88;;;;;;;3.48;76.56;96510.94;5086829;28;20028;-72
2021/11/27 11:20:58;;;;;;;70.88;31.98;;;;;;;3.47;76.76;96512.03;5087016;28;20036;-72